Lampasas, Lampasas Airport (KLZZ)

NameLampasas Airport
CityLampasas
CountryUnited States
ICAOKLZZ
IATA
Altitude370 m
CoordinatesGoogle Map
Live Air TrafficLiveATC.net
METARKLZZ 012055Z AUTO 36009KT 320V020 10SM CLR 15/M06 A3014 RMK AO2 T01521058
2019-12-01 20:55:00 Wind: North (360°) 4.63 m/s - Visibility: 16093.4 m - Temperature: 15 °C - Dew point: -6 °C - Humidity: 23.1% - Pressure: 1020.66 hPa
Statistics

The table below shows the detailed information of all flights to/from Lampasas, Lampasas Airport (KLZZ).